Archival Weather

Prince Mohammad Bin Abdulaziz

Prince Mohammad Bin Abdulaziz, Saudi Arabia (OEMA)

Report from: Sunday, December 3, 2023 11:00 PM +03
Current time: Wednesday, April 24, 2024 10:23 PM +03

Current weather – Weather history – Daily summaries
Weather forecast

Temperature25.0°C (77.0°F)
Dew point2.0°C (35.6°F)
Winds 17 kts (8.7 m/s, 19.6 mph) East (100°)
Clouds Sky clear
Altimeter30.15 in.Hg (1021 mB)
Relative humidity22 %
Density altitude1,008 ft. (307 m)
Remarks Ceiling and visibility OK
No significant changes expected in the next two hours
Flight conditions Visual Meteorological Conditions
Raw dataOEMA 032000Z 10017KT CAVOK 25/02 Q1021 NOSIG
An error has occurred. This application may no longer respond until reloaded. Reload 🗙